createdAt,value
2019-05-01T00:01:26.395Z,99.90
2019-05-01T00:04:03.740Z,99.90
2019-05-01T00:06:36.160Z,99.90
2019-05-01T00:09:08.258Z,99.90
2019-05-01T00:11:37.531Z,99.90
2019-05-01T00:14:08.429Z,99.90
2019-05-01T00:16:39.105Z,99.90
2019-05-01T00:19:08.247Z,99.90
2019-05-01T00:21:37.329Z,99.90
2019-05-01T00:24:07.020Z,99.90
2019-05-01T00:26:36.142Z,99.90
2019-05-01T00:29:07.356Z,99.90
2019-05-01T00:31:36.404Z,99.90
2019-05-01T00:34:05.472Z,99.90
2019-05-01T00:36:34.521Z,99.90
2019-05-01T00:39:03.846Z,99.90
2019-05-01T00:41:32.905Z,99.90
2019-05-01T00:44:01.983Z,99.90
2019-05-01T00:46:31.109Z,99.90
2019-05-01T00:49:00.189Z,99.90
2019-05-01T00:51:29.251Z,99.90
2019-05-01T00:53:58.327Z,99.90
2019-05-01T00:56:44.092Z,99.90
2019-05-01T00:59:23.565Z,99.90
2019-05-01T01:02:12.465Z,99.90
2019-05-01T01:04:41.601Z,99.90
2019-05-01T01:07:10.677Z,99.90
2019-05-01T01:09:39.748Z,99.90
2019-05-01T01:12:08.804Z,99.90
2019-05-01T01:14:37.979Z,99.90
2019-05-01T01:17:07.102Z,99.90
2019-05-01T01:19:36.163Z,99.90
2019-05-01T01:22:05.311Z,99.90
2019-05-01T01:24:34.429Z,99.90
2019-05-01T01:27:03.640Z,99.90
2019-05-01T01:29:32.783Z,99.90
2019-05-01T01:32:01.860Z,99.90
2019-05-01T01:34:30.911Z,99.90
2019-05-01T01:37:00.012Z,99.90
2019-05-01T01:39:29.056Z,99.90
2019-05-01T01:41:58.292Z,99.90
2019-05-01T01:44:28.986Z,99.90
2019-05-01T01:46:59.758Z,99.90
2019-05-01T01:49:29.378Z,99.90
2019-05-01T01:51:58.600Z,99.90
2019-05-01T01:54:27.791Z,99.90
2019-05-01T01:56:56.997Z,99.90
2019-05-01T01:59:26.738Z,99.90
2019-05-01T02:02:03.493Z,99.90
2019-05-01T02:04:39.911Z,99.90
2019-05-01T02:07:09.147Z,99.90
2019-05-01T02:09:38.381Z,99.90
2019-05-01T02:12:07.681Z,99.90
2019-05-01T02:14:36.759Z,99.90
2019-05-01T02:17:06.273Z,99.90
2019-05-01T02:19:35.347Z,99.90
2019-05-01T02:22:04.429Z,99.90
2019-05-01T02:24:33.485Z,99.90
2019-05-01T02:27:04.272Z,99.90
2019-05-01T02:29:35.037Z,99.90
2019-05-01T02:32:04.248Z,99.90
2019-05-01T02:34:35.759Z,99.90
2019-05-01T02:37:04.950Z,99.90
2019-05-01T02:39:36.152Z,99.90
2019-05-01T02:42:06.964Z,99.90
2019-05-01T02:44:39.130Z,99.90
2019-05-01T02:47:10.661Z,99.90
2019-05-01T02:49:48.534Z,99.90
2019-05-01T02:52:20.463Z,99.90
2019-05-01T02:54:50.516Z,99.90
2019-05-01T02:57:22.090Z,99.90
2019-05-01T02:59:53.519Z,99.90
2019-05-01T03:02:25.393Z,99.90
2019-05-01T03:04:55.621Z,99.90
2019-05-01T03:07:27.208Z,99.90
2019-05-01T03:09:56.590Z,99.90
2019-05-01T03:12:46.533Z,99.90
2019-05-01T03:15:16.537Z,99.90
2019-05-01T03:17:47.258Z,99.90
2019-05-01T03:20:21.190Z,99.90
2019-05-01T03:22:58.690Z,99.90
2019-05-01T03:25:27.905Z,99.90
2019-05-01T03:27:57.047Z,99.90
2019-05-01T03:30:26.198Z,99.90
2019-05-01T03:32:55.606Z,99.90
2019-05-01T03:35:25.146Z,99.90
2019-05-01T03:37:54.417Z,99.90
2019-05-01T03:40:23.832Z,99.90
2019-05-01T03:42:53.041Z,99.90
2019-05-01T03:45:22.562Z,99.90
2019-05-01T03:47:51.905Z,99.90
2019-05-01T03:50:20.969Z,99.90
2019-05-01T03:52:50.605Z,99.90
2019-05-01T03:55:19.867Z,99.90
2019-05-01T03:57:49.533Z,99.90
2019-05-01T04:00:20.380Z,99.90
2019-05-01T04:03:08.121Z,99.90
2019-05-01T04:05:37.191Z,99.90
2019-05-01T04:08:06.482Z,99.90
2019-05-01T04:10:36.017Z,99.90
2019-05-01T04:13:05.419Z,99.90
2019-05-01T04:15:34.857Z,99.90
2019-05-01T04:18:05.980Z,99.90
2019-05-01T04:20:35.061Z,99.90
2019-05-01T04:23:04.489Z,99.90
2019-05-01T04:25:33.563Z,99.90
2019-05-01T04:28:21.193Z,99.90
2019-05-01T04:30:55.629Z,99.90
2019-05-01T04:33:23.394Z,99.90
2019-05-01T04:36:08.668Z,99.90
2019-05-01T04:38:37.802Z,99.90
2019-05-01T04:41:07.059Z,99.90
2019-05-01T04:43:36.230Z,99.90
2019-05-01T04:46:05.395Z,99.90
2019-05-01T04:48:34.796Z,99.90
2019-05-01T04:51:04.417Z,99.90
2019-05-01T04:53:34.751Z,99.90
2019-05-01T04:56:04.332Z,99.90
2019-05-01T04:58:33.403Z,99.90
2019-05-01T05:01:02.536Z,99.90
2019-05-01T05:03:31.598Z,99.90
2019-05-01T05:06:00.681Z,99.90
2019-05-01T05:08:29.812Z,99.90
2019-05-01T05:11:01.065Z,99.90
2019-05-01T05:13:34.490Z,99.90
2019-05-01T05:16:22.897Z,99.90
2019-05-01T05:18:52.028Z,99.90
2019-05-01T05:21:40.534Z,99.90
2019-05-01T05:24:10.145Z,99.90
2019-05-01T05:26:40.492Z,99.90
2019-05-01T05:29:10.938Z,99.90
2019-05-01T05:31:41.994Z,99.90
2019-05-01T05:34:13.396Z,99.90
2019-05-01T05:36:44.543Z,99.90
2019-05-01T05:39:16.381Z,99.90
2019-05-01T05:41:46.788Z,99.90
2019-05-01T05:44:16.225Z,99.90
2019-05-01T05:46:45.316Z,99.90
2019-05-01T05:49:14.812Z,99.90
2019-05-01T05:51:50.537Z,99.90
2019-05-01T05:54:27.028Z,99.90
2019-05-01T05:57:00.694Z,99.90
2019-05-01T05:59:34.643Z,99.90
2019-05-01T06:02:06.808Z,99.90
2019-05-01T06:04:46.097Z,99.90
2019-05-01T06:07:40.827Z,99.90
2019-05-01T06:10:11.373Z,99.90
2019-05-01T06:12:46.900Z,99.90
2019-05-01T06:15:19.941Z,99.90
2019-05-01T06:17:50.740Z,99.90
2019-05-01T06:20:26.090Z,99.90
2019-05-01T06:23:06.082Z,99.90
2019-05-01T06:25:38.895Z,99.90
2019-05-01T06:28:08.607Z,99.90
2019-05-01T06:30:41.981Z,99.90
2019-05-01T06:33:09.548Z,99.90
2019-05-01T06:35:39.531Z,99.90
2019-05-01T06:38:14.203Z,99.90
2019-05-01T06:40:45.992Z,99.90
2019-05-01T06:43:25.543Z,99.90
2019-05-01T06:46:13.278Z,99.90
2019-05-01T06:49:07.064Z,99.90
2019-05-01T06:51:41.859Z,99.90
2019-05-01T06:54:16.438Z,99.90
2019-05-01T06:56:44.828Z,99.90
2019-05-01T06:59:16.888Z,99.90
2019-05-01T07:01:47.300Z,99.90
2019-05-01T07:04:16.782Z,99.90
2019-05-01T07:06:45.941Z,99.90
2019-05-01T07:09:27.345Z,99.90
2019-05-01T07:11:47.701Z,99.90
2019-05-01T07:14:17.593Z,99.90
2019-05-01T07:16:46.980Z,99.90
2019-05-01T07:19:17.400Z,99.90
2019-05-01T07:21:46.458Z,99.90
2019-05-01T07:24:15.608Z,99.90
2019-05-01T07:26:47.996Z,99.90
2019-05-01T07:29:17.189Z,99.90
2019-05-01T07:31:47.024Z,99.90
2019-05-01T07:34:16.993Z,99.90
2019-05-01T07:36:50.230Z,99.90
2019-05-01T07:39:17.171Z,99.90
2019-05-01T07:41:46.538Z,99.90
2019-05-01T07:44:17.242Z,99.90
2019-05-01T07:46:57.065Z,99.90
2019-05-01T07:49:29.216Z,99.90
2019-05-01T07:51:58.352Z,99.90
2019-05-01T07:54:30.991Z,99.90
2019-05-01T07:57:03.218Z,99.90
2019-05-01T07:59:30.808Z,99.90
2019-05-01T08:02:01.521Z,99.90
2019-05-01T08:04:37.773Z,99.90
2019-05-01T08:07:01.438Z,99.90
2019-05-01T08:09:30.505Z,99.90
2019-05-01T08:12:01.117Z,99.90
2019-05-01T08:14:30.160Z,99.90
2019-05-01T08:16:59.217Z,99.90
2019-05-01T08:19:42.300Z,99.90
2019-05-01T08:22:15.959Z,99.90
2019-05-01T08:24:44.732Z,99.90
2019-05-01T08:27:21.491Z,99.90
2019-05-01T08:29:55.100Z,99.90
2019-05-01T08:32:28.215Z,99.90
2019-05-01T08:35:00.441Z,99.90
2019-05-01T08:37:29.190Z,99.90
2019-05-01T08:39:58.239Z,99.90
2019-05-01T08:42:27.325Z,99.90
2019-05-01T08:45:05.209Z,99.90
2019-05-01T08:47:51.217Z,99.90
2019-05-01T08:50:25.070Z,99.90
2019-05-01T08:52:52.722Z,99.90
2019-05-01T08:55:21.841Z,99.90
2019-05-01T08:57:50.917Z,99.90
2019-05-01T09:00:20.042Z,99.90
2019-05-01T09:02:49.129Z,99.90
2019-05-01T09:05:28.207Z,99.90
2019-05-01T09:07:51.142Z,99.90
2019-05-01T09:10:21.536Z,99.90
2019-05-01T09:12:52.098Z,99.90
2019-05-01T09:15:21.332Z,99.90
2019-05-01T09:17:50.426Z,99.90
2019-05-01T09:20:19.552Z,99.90
2019-05-01T09:22:48.752Z,99.90
2019-05-01T09:25:19.588Z,99.90
2019-05-01T09:27:53.026Z,99.90
2019-05-01T09:30:27.015Z,99.90
2019-05-01T09:32:56.281Z,99.90
2019-05-01T09:35:25.408Z,99.90
2019-05-01T09:37:54.544Z,99.90
2019-05-01T09:40:25.515Z,99.90
2019-05-01T09:42:58.712Z,99.90
2019-05-01T09:45:25.460Z,99.90
2019-05-01T09:47:54.593Z,99.90
2019-05-01T09:50:25.867Z,99.90
2019-05-01T09:52:59.771Z,99.90
2019-05-01T09:55:31.236Z,99.90
2019-05-01T09:58:02.577Z,99.90
2019-05-01T10:00:32.395Z,99.90
2019-05-01T10:03:01.459Z,99.90
2019-05-01T10:05:30.613Z,99.90
2019-05-01T10:08:03.795Z,99.90
2019-05-01T10:10:30.731Z,99.90
2019-05-01T10:13:00.074Z,99.90
2019-05-01T10:15:29.243Z,99.90
2019-05-01T10:17:58.386Z,99.90
2019-05-01T10:20:27.459Z,99.90
2019-05-01T10:22:56.525Z,99.90
2019-05-01T10:25:25.592Z,99.90
2019-05-01T10:28:02.050Z,99.90
2019-05-01T10:30:36.291Z,99.90
2019-05-01T10:33:07.777Z,99.90
2019-05-01T10:35:44.533Z,99.90
2019-05-01T10:38:13.608Z,99.90
2019-05-01T10:40:42.687Z,99.90
2019-05-01T10:43:11.741Z,99.90
2019-05-01T10:45:40.825Z,99.90
2019-05-01T10:48:09.960Z,99.90
2019-05-01T10:50:39.107Z,99.90
2019-05-01T10:53:08.181Z,99.90
2019-05-01T10:55:37.252Z,99.90
2019-05-01T10:58:06.392Z,99.90
2019-05-01T11:00:37.199Z,99.90
2019-05-01T11:03:06.540Z,99.90
2019-05-01T11:05:35.700Z,99.90
2019-05-01T11:08:05.040Z,99.90
2019-05-01T11:10:34.184Z,99.90
2019-05-01T11:13:03.264Z,99.90
2019-05-01T11:15:32.408Z,99.90
2019-05-01T11:18:01.471Z,99.90
2019-05-01T11:20:30.556Z,99.90
2019-05-01T11:22:59.623Z,99.90
2019-05-01T11:25:29.315Z,99.90
2019-05-01T11:27:58.380Z,99.90
2019-05-01T11:30:27.436Z,99.90
2019-05-01T11:32:58.159Z,99.90
2019-05-01T11:35:45.472Z,99.90
2019-05-01T11:38:16.152Z,99.90
2019-05-01T11:40:49.819Z,99.90
2019-05-01T11:43:18.576Z,99.90
2019-05-01T11:45:47.629Z,99.90
2019-05-01T11:48:16.677Z,99.90
2019-05-01T11:50:45.719Z,99.90
2019-05-01T11:53:14.795Z,99.90
2019-05-01T11:55:43.870Z,99.90
2019-05-01T11:58:13.015Z,99.90
2019-05-01T12:00:42.933Z,99.90
2019-05-01T12:03:12.008Z,99.90
2019-05-01T12:05:41.052Z,99.90
2019-05-01T12:08:10.444Z,99.90
2019-05-01T12:10:40.286Z,99.90
2019-05-01T12:13:09.364Z,99.90
2019-05-01T12:15:38.499Z,99.90
2019-05-01T12:18:07.549Z,99.90
2019-05-01T12:20:36.594Z,99.90
2019-05-01T12:23:05.652Z,99.90
2019-05-01T12:25:34.714Z,99.90
2019-05-01T12:28:04.843Z,99.90
2019-05-01T12:30:33.899Z,99.90
2019-05-01T12:33:02.957Z,99.90
2019-05-01T12:35:32.034Z,99.90
2019-05-01T12:38:02.823Z,99.90
2019-05-01T12:40:32.130Z,99.90
2019-05-01T12:43:01.522Z,99.90
2019-05-01T12:45:30.618Z,99.90
2019-05-01T12:48:01.029Z,99.90
2019-05-01T12:50:30.061Z,99.90
2019-05-01T12:53:09.823Z,99.90
2019-05-01T12:55:52.739Z,99.90
2019-05-01T12:58:21.802Z,99.90
2019-05-01T13:00:54.948Z,99.90
2019-05-01T13:03:24.033Z,99.90
2019-05-01T13:05:53.086Z,99.90
2019-05-01T13:08:22.178Z,99.90
2019-05-01T13:10:51.230Z,99.90
2019-05-01T13:13:20.311Z,99.90
2019-05-01T13:15:49.372Z,99.90
2019-05-01T13:18:18.449Z,99.90
2019-05-01T13:20:47.594Z,99.90
2019-05-01T13:23:16.647Z,99.90
2019-05-01T13:25:46.389Z,99.90
2019-05-01T13:28:33.533Z,99.90
2019-05-01T13:31:06.927Z,99.90
2019-05-01T13:33:35.415Z,99.90
2019-05-01T13:36:04.620Z,99.90
2019-05-01T13:38:33.745Z,99.90
2019-05-01T13:41:02.805Z,99.90
2019-05-01T13:43:31.867Z,99.90
2019-05-01T13:46:00.959Z,99.90
2019-05-01T13:48:30.097Z,99.90
2019-05-01T13:50:59.248Z,99.90
2019-05-01T13:53:28.295Z,99.90
2019-05-01T13:55:57.492Z,99.90
2019-05-01T13:58:26.556Z,99.90
2019-05-01T14:00:55.617Z,99.90
2019-05-01T14:03:24.692Z,99.90
2019-05-01T14:05:53.754Z,99.90
2019-05-01T14:08:22.883Z,99.90
2019-05-01T14:10:51.980Z,99.90
2019-05-01T14:13:21.092Z,99.90
2019-05-01T14:15:50.229Z,99.90
2019-05-01T14:18:19.273Z,99.90
2019-05-01T14:20:52.947Z,99.90
2019-05-01T14:23:23.359Z,99.90
2019-05-01T14:25:54.060Z,99.90
2019-05-01T14:28:23.131Z,99.70
2019-05-01T14:30:52.193Z,99.70
2019-05-01T14:33:21.260Z,99.40
2019-05-01T14:35:50.425Z,99.80
2019-05-01T14:38:20.008Z,99.70
2019-05-01T14:40:49.234Z,99.10
2019-05-01T14:43:18.303Z,99.20
2019-05-01T14:45:47.425Z,99.10
2019-05-01T14:48:16.620Z,99.20
2019-05-01T14:50:45.944Z,99.20
2019-05-01T14:53:15.002Z,99.40
2019-05-01T14:55:44.120Z,99.60
2019-05-01T14:58:13.192Z,99.50
2019-05-01T15:00:42.267Z,98.80
2019-05-01T15:03:11.353Z,99.00
2019-05-01T15:05:40.409Z,99.10
2019-05-01T15:08:09.473Z,98.80
2019-05-01T15:10:38.521Z,98.60
2019-05-01T15:13:09.228Z,98.50
2019-05-01T15:16:02.866Z,98.70
2019-05-01T15:18:34.164Z,98.90
2019-05-01T15:21:03.224Z,99.40
2019-05-01T15:23:35.108Z,99.50
2019-05-01T15:26:04.176Z,99.50
2019-05-01T15:28:33.317Z,99.70
2019-05-01T15:31:02.366Z,99.70
2019-05-01T15:33:33.618Z,99.40
2019-05-01T15:36:22.071Z,99.20
2019-05-01T15:38:51.128Z,98.90
2019-05-01T15:41:30.749Z,99.00
2019-05-01T15:44:04.324Z,99.00
2019-05-01T15:46:41.017Z,99.10
2019-05-01T15:49:11.105Z,99.30
2019-05-01T15:51:40.730Z,99.50
2019-05-01T15:54:22.210Z,99.50
2019-05-01T15:56:51.268Z,99.80
2019-05-01T15:59:20.342Z,99.80
2019-05-01T16:01:49.393Z,99.70
2019-05-01T16:04:18.524Z,99.50
2019-05-01T16:06:47.585Z,99.50
2019-05-01T16:09:16.792Z,99.00
2019-05-01T16:12:03.768Z,99.30
2019-05-01T16:14:32.910Z,99.50
2019-05-01T16:17:01.958Z,99.70
2019-05-01T16:19:31.041Z,99.90
2019-05-01T16:22:00.166Z,99.90
2019-05-01T16:24:29.235Z,99.90
2019-05-01T16:26:58.289Z,99.90
2019-05-01T16:29:27.345Z,99.90
2019-05-01T16:31:56.424Z,99.90
2019-05-01T16:34:25.487Z,99.90
2019-05-01T16:36:54.570Z,99.90
2019-05-01T16:39:25.268Z,99.90
2019-05-01T16:41:54.324Z,99.90
2019-05-01T16:44:23.401Z,99.90
2019-05-01T16:46:52.471Z,99.90
2019-05-01T16:49:21.545Z,99.90
2019-05-01T16:51:50.596Z,99.90
2019-05-01T16:54:19.756Z,99.90
2019-05-01T16:56:48.911Z,99.90
2019-05-01T16:59:17.976Z,99.90
2019-05-01T17:02:00.456Z,99.90
2019-05-01T17:04:46.079Z,99.90
2019-05-01T17:07:35.068Z,99.90
2019-05-01T17:10:12.319Z,99.90
2019-05-01T17:12:45.715Z,99.90
2019-05-01T17:15:14.533Z,99.90
2019-05-01T17:17:44.432Z,99.90
2019-05-01T17:20:14.394Z,99.90
2019-05-01T17:22:46.195Z,99.90
2019-05-01T17:25:14.336Z,99.90
2019-05-01T17:27:43.425Z,99.90
2019-05-01T17:30:16.962Z,99.90
2019-05-01T17:32:45.786Z,99.90
2019-05-01T17:35:14.937Z,99.90
2019-05-01T17:37:44.012Z,99.90
2019-05-01T17:40:13.219Z,99.90
2019-05-01T17:42:42.281Z,99.90
2019-05-01T17:45:11.572Z,99.90
2019-05-01T17:47:40.659Z,99.90
2019-05-01T17:50:11.493Z,99.90
2019-05-01T17:52:40.552Z,99.90
2019-05-01T17:55:09.682Z,99.90
2019-05-01T17:57:38.928Z,99.90
2019-05-01T18:00:25.693Z,99.90
2019-05-01T18:02:56.460Z,99.90
2019-05-01T18:05:27.148Z,99.90
2019-05-01T18:08:03.220Z,99.90
2019-05-01T18:10:34.008Z,99.90
2019-05-01T18:13:04.934Z,99.90
2019-05-01T18:15:36.581Z,99.90
2019-05-01T18:18:10.796Z,99.90
2019-05-01T18:20:39.104Z,99.90
2019-05-01T18:23:12.538Z,99.90
2019-05-01T18:25:54.443Z,99.90
2019-05-01T18:28:31.704Z,99.90
2019-05-01T18:31:00.854Z,99.90
2019-05-01T18:33:29.991Z,99.90
2019-05-01T18:35:59.036Z,99.90
2019-05-01T18:38:29.740Z,99.90
2019-05-01T18:41:00.435Z,99.90
2019-05-01T18:43:32.164Z,99.90
2019-05-01T18:46:00.411Z,99.90
2019-05-01T18:48:29.497Z,99.90
2019-05-01T18:50:58.752Z,99.90
2019-05-01T18:53:27.878Z,99.90
2019-05-01T18:56:01.482Z,99.90
2019-05-01T18:58:27.776Z,99.90
2019-05-01T19:00:56.918Z,99.90
2019-05-01T19:03:26.057Z,99.90
2019-05-01T19:05:55.371Z,99.90
2019-05-01T19:08:24.435Z,99.90
2019-05-01T19:10:53.489Z,99.90
2019-05-01T19:13:22.603Z,99.90
2019-05-01T19:15:51.681Z,99.90
2019-05-01T19:18:20.744Z,99.90
2019-05-01T19:20:59.491Z,99.90
2019-05-01T19:23:22.358Z,99.90
2019-05-01T19:25:51.607Z,99.90
2019-05-01T19:28:21.221Z,99.90
2019-05-01T19:30:50.339Z,99.90
2019-05-01T19:33:19.401Z,99.90
2019-05-01T19:35:48.473Z,99.90
2019-05-01T19:38:29.517Z,99.90
2019-05-01T19:40:58.849Z,99.90
2019-05-01T19:43:27.910Z,99.90
2019-05-01T19:45:57.058Z,99.90
2019-05-01T19:48:26.177Z,99.90
2019-05-01T19:50:55.357Z,99.90
2019-05-01T19:53:24.769Z,99.90
2019-05-01T19:55:53.853Z,99.90
2019-05-01T19:58:22.944Z,99.90
2019-05-01T20:00:54.317Z,99.90
2019-05-01T20:03:24.152Z,99.90
2019-05-01T20:05:53.393Z,99.90
2019-05-01T20:08:22.497Z,99.90
2019-05-01T20:10:51.575Z,99.90
2019-05-01T20:13:20.699Z,99.90
2019-05-01T20:15:49.771Z,99.90
2019-05-01T20:18:18.847Z,99.90
2019-05-01T20:20:48.050Z,99.90
2019-05-01T20:23:17.526Z,99.90
2019-05-01T20:25:50.842Z,99.90
2019-05-01T20:28:17.379Z,99.90
2019-05-01T20:30:49.466Z,99.90
2019-05-01T20:33:17.652Z,99.90
2019-05-01T20:35:46.752Z,99.90
2019-05-01T20:38:15.819Z,99.90
2019-05-01T20:40:44.943Z,99.90
2019-05-01T20:43:14.089Z,99.90
2019-05-01T20:45:44.965Z,99.90
2019-05-01T20:48:18.451Z,99.90
2019-05-01T20:50:44.825Z,99.90
2019-05-01T20:53:13.883Z,99.90
2019-05-01T20:55:44.691Z,99.90
2019-05-01T20:58:17.393Z,99.90
2019-05-01T21:00:53.132Z,99.90
2019-05-01T21:03:19.626Z,99.90
2019-05-01T21:05:50.409Z,99.90
2019-05-01T21:08:39.269Z,99.90
2019-05-01T21:11:10.922Z,99.90
2019-05-01T21:13:39.603Z,99.90
2019-05-01T21:16:08.746Z,99.90
2019-05-01T21:18:37.805Z,99.90
2019-05-01T21:21:06.877Z,99.90
2019-05-01T21:23:35.944Z,99.90
2019-05-01T21:26:05.020Z,99.90
2019-05-01T21:28:34.200Z,99.90
2019-05-01T21:31:03.865Z,99.90
2019-05-01T21:33:33.894Z,99.90
2019-05-01T21:36:04.766Z,99.90
2019-05-01T21:38:34.128Z,99.90
2019-05-01T21:41:03.332Z,99.90
2019-05-01T21:43:36.802Z,99.90
2019-05-01T21:46:03.959Z,99.90
2019-05-01T21:48:33.553Z,99.90
2019-05-01T21:51:06.959Z,99.90
2019-05-01T21:53:37.519Z,99.90
2019-05-01T21:56:06.159Z,99.90
2019-05-01T21:58:35.920Z,99.90
2019-05-01T22:01:06.477Z,99.90
2019-05-01T22:03:35.557Z,99.90
2019-05-01T22:06:04.814Z,99.90
2019-05-01T22:08:34.528Z,99.90
2019-05-01T22:11:05.013Z,99.90
2019-05-01T22:13:34.076Z,99.90
2019-05-01T22:16:10.678Z,99.90
2019-05-01T22:18:41.457Z,99.90
2019-05-01T22:21:30.473Z,99.90
2019-05-01T22:24:01.188Z,99.90
2019-05-01T22:26:34.560Z,99.90
2019-05-01T22:29:11.133Z,99.90
2019-05-01T22:31:57.463Z,99.90
2019-05-01T22:34:26.068Z,99.90
2019-05-01T22:36:55.205Z,99.90
2019-05-01T22:39:25.209Z,99.90
2019-05-01T22:41:54.283Z,99.90
2019-05-01T22:44:23.515Z,99.90
2019-05-01T22:46:52.555Z,99.90
2019-05-01T22:49:21.616Z,99.90
2019-05-01T22:51:50.676Z,99.90
2019-05-01T22:54:19.762Z,99.90
2019-05-01T22:56:48.953Z,99.90
2019-05-01T22:59:18.044Z,99.90
2019-05-01T23:01:49.191Z,99.90
2019-05-01T23:04:19.589Z,99.90
2019-05-01T23:06:48.638Z,99.90
2019-05-01T23:09:23.432Z,99.90
2019-05-01T23:11:50.816Z,99.90
2019-05-01T23:14:20.139Z,99.90
2019-05-01T23:16:50.855Z,99.90
2019-05-01T23:19:22.765Z,99.90
2019-05-01T23:21:52.383Z,99.90
2019-05-01T23:24:21.703Z,99.90
2019-05-01T23:26:51.907Z,99.90
2019-05-01T23:29:21.564Z,99.90
2019-05-01T23:31:50.726Z,99.90
2019-05-01T23:34:21.185Z,99.90
2019-05-01T23:36:50.637Z,99.90
2019-05-01T23:39:19.721Z,99.90
2019-05-01T23:41:48.860Z,99.90
2019-05-01T23:44:17.896Z,99.90
2019-05-01T23:47:06.301Z,99.90
2019-05-01T23:49:35.371Z,99.90
2019-05-01T23:52:05.225Z,99.90
2019-05-01T23:54:34.450Z,99.90
2019-05-01T23:57:03.508Z,99.70
2019-05-01T23:59:32.551Z,99.80
